sensor_id;sensor_type;location;lat;lon;timestamp;P1;durP1;ratioP1;P2;durP2;ratioP2
3791;SDS011;1911;53.768;11.474;2023-09-30T00:00:59;14.60;;;4.50;;
3791;SDS011;1911;53.768;11.474;2023-09-30T00:03:25;10.00;;;3.27;;
3791;SDS011;1911;53.768;11.474;2023-09-30T00:05:51;13.27;;;2.87;;
3791;SDS011;1911;53.768;11.474;2023-09-30T00:08:17;17.23;;;4.50;;
3791;SDS011;1911;53.768;11.474;2023-09-30T00:10:42;19.43;;;4.00;;
3791;SDS011;1911;53.768;11.474;2023-09-30T00:13:08;12.70;;;3.30;;
3791;SDS011;1911;53.768;11.474;2023-09-30T00:15:34;12.40;;;3.30;;
3791;SDS011;1911;53.768;11.474;2023-09-30T00:18:00;11.17;;;3.43;;
3791;SDS011;1911;53.768;11.474;2023-09-30T00:20:27;13.27;;;3.60;;
3791;SDS011;1911;53.768;11.474;2023-09-30T00:22:53;10.60;;;3.70;;
3791;SDS011;1911;53.768;11.474;2023-09-30T00:25:19;13.63;;;4.03;;
3791;SDS011;1911;53.768;11.474;2023-09-30T00:27:45;13.67;;;3.90;;
3791;SDS011;1911;53.768;11.474;2023-09-30T00:30:14;11.97;;;4.50;;
3791;SDS011;1911;53.768;11.474;2023-09-30T00:32:40;11.70;;;4.23;;
3791;SDS011;1911;53.768;11.474;2023-09-30T00:35:06;6.90;;;3.00;;
3791;SDS011;1911;53.768;11.474;2023-09-30T00:37:39;13.97;;;3.93;;
3791;SDS011;1911;53.768;11.474;2023-09-30T00:40:06;16.40;;;4.10;;
3791;SDS011;1911;53.768;11.474;2023-09-30T00:42:36;10.53;;;4.00;;
3791;SDS011;1911;53.768;11.474;2023-09-30T00:45:03;14.43;;;3.50;;
3791;SDS011;1911;53.768;11.474;2023-09-30T00:47:30;12.33;;;5.10;;
3791;SDS011;1911;53.768;11.474;2023-09-30T00:49:55;11.27;;;3.90;;
3791;SDS011;1911;53.768;11.474;2023-09-30T00:52:21;8.83;;;3.73;;
3791;SDS011;1911;53.768;11.474;2023-09-30T00:54:47;13.53;;;4.30;;
3791;SDS011;1911;53.768;11.474;2023-09-30T00:57:14;9.17;;;3.10;;
3791;SDS011;1911;53.768;11.474;2023-09-30T00:59:41;6.93;;;2.83;;
3791;SDS011;1911;53.768;11.474;2023-09-30T01:02:07;12.23;;;3.53;;
3791;SDS011;1911;53.768;11.474;2023-09-30T01:04:38;12.00;;;3.67;;
3791;SDS011;1911;53.768;11.474;2023-09-30T01:07:07;16.60;;;3.83;;
3791;SDS011;1911;53.768;11.474;2023-09-30T01:09:33;9.53;;;4.03;;
3791;SDS011;1911;53.768;11.474;2023-09-30T01:11:59;14.30;;;3.93;;
3791;SDS011;1911;53.768;11.474;2023-09-30T01:14:31;15.33;;;5.17;;
3791;SDS011;1911;53.768;11.474;2023-09-30T01:17:01;9.53;;;2.70;;
3791;SDS011;1911;53.768;11.474;2023-09-30T01:19:27;10.23;;;3.50;;
3791;SDS011;1911;53.768;11.474;2023-09-30T01:21:57;12.90;;;3.83;;
3791;SDS011;1911;53.768;11.474;2023-09-30T01:24:28;6.50;;;2.83;;
3791;SDS011;1911;53.768;11.474;2023-09-30T01:26:54;9.97;;;3.90;;
3791;SDS011;1911;53.768;11.474;2023-09-30T01:29:20;15.23;;;4.10;;
3791;SDS011;1911;53.768;11.474;2023-09-30T01:31:45;14.07;;;3.10;;
3791;SDS011;1911;53.768;11.474;2023-09-30T01:34:14;12.13;;;4.80;;
3791;SDS011;1911;53.768;11.474;2023-09-30T01:36:44;11.27;;;4.23;;
3791;SDS011;1911;53.768;11.474;2023-09-30T01:39:10;13.70;;;3.87;;
3791;SDS011;1911;53.768;11.474;2023-09-30T01:41:36;15.83;;;4.20;;
3791;SDS011;1911;53.768;11.474;2023-09-30T01:44:03;9.17;;;3.37;;
3791;SDS011;1911;53.768;11.474;2023-09-30T01:46:29;16.63;;;3.67;;
3791;SDS011;1911;53.768;11.474;2023-09-30T01:48:55;16.67;;;4.60;;
3791;SDS011;1911;53.768;11.474;2023-09-30T01:51:20;11.03;;;4.80;;
3791;SDS011;1911;53.768;11.474;2023-09-30T01:53:47;12.30;;;3.90;;
3791;SDS011;1911;53.768;11.474;2023-09-30T01:56:12;10.70;;;3.33;;
3791;SDS011;1911;53.768;11.474;2023-09-30T01:58:38;10.73;;;3.77;;
3791;SDS011;1911;53.768;11.474;2023-09-30T02:01:04;19.10;;;3.90;;
3791;SDS011;1911;53.768;11.474;2023-09-30T02:03:29;10.30;;;5.00;;
3791;SDS011;1911;53.768;11.474;2023-09-30T02:05:56;9.83;;;3.30;;
3791;SDS011;1911;53.768;11.474;2023-09-30T02:08:22;11.63;;;4.13;;
3791;SDS011;1911;53.768;11.474;2023-09-30T02:10:48;13.47;;;3.80;;
3791;SDS011;1911;53.768;11.474;2023-09-30T02:13:16;21.53;;;4.77;;
3791;SDS011;1911;53.768;11.474;2023-09-30T02:15:42;11.27;;;3.30;;
3791;SDS011;1911;53.768;11.474;2023-09-30T02:18:08;17.77;;;4.20;;
3791;SDS011;1911;53.768;11.474;2023-09-30T02:20:34;16.13;;;4.17;;
3791;SDS011;1911;53.768;11.474;2023-09-30T02:23:04;10.10;;;2.80;;
3791;SDS011;1911;53.768;11.474;2023-09-30T02:25:37;15.17;;;3.70;;
3791;SDS011;1911;53.768;11.474;2023-09-30T02:28:05;14.70;;;4.00;;
3791;SDS011;1911;53.768;11.474;2023-09-30T02:30:32;15.13;;;4.23;;
3791;SDS011;1911;53.768;11.474;2023-09-30T02:32:57;10.73;;;3.70;;
3791;SDS011;1911;53.768;11.474;2023-09-30T02:35:24;13.03;;;3.67;;
3791;SDS011;1911;53.768;11.474;2023-09-30T02:37:51;11.40;;;4.23;;
3791;SDS011;1911;53.768;11.474;2023-09-30T02:40:17;8.60;;;3.80;;
3791;SDS011;1911;53.768;11.474;2023-09-30T02:42:43;11.17;;;3.70;;
3791;SDS011;1911;53.768;11.474;2023-09-30T02:45:10;18.77;;;5.30;;
3791;SDS011;1911;53.768;11.474;2023-09-30T02:47:36;17.60;;;4.47;;
3791;SDS011;1911;53.768;11.474;2023-09-30T02:50:04;8.60;;;4.60;;
3791;SDS011;1911;53.768;11.474;2023-09-30T02:52:30;10.63;;;4.27;;
3791;SDS011;1911;53.768;11.474;2023-09-30T02:54:56;12.53;;;5.30;;
3791;SDS011;1911;53.768;11.474;2023-09-30T02:57:23;15.77;;;4.63;;
3791;SDS011;1911;53.768;11.474;2023-09-30T02:59:49;13.30;;;3.97;;
3791;SDS011;1911;53.768;11.474;2023-09-30T03:02:16;9.87;;;5.10;;
3791;SDS011;1911;53.768;11.474;2023-09-30T03:04:43;12.27;;;5.33;;
3791;SDS011;1911;53.768;11.474;2023-09-30T03:07:08;14.57;;;4.30;;
3791;SDS011;1911;53.768;11.474;2023-09-30T03:09:34;9.63;;;4.17;;
3791;SDS011;1911;53.768;11.474;2023-09-30T03:12:00;12.60;;;4.30;;
3791;SDS011;1911;53.768;11.474;2023-09-30T03:14:29;24.83;;;6.77;;
3791;SDS011;1911;53.768;11.474;2023-09-30T03:16:56;14.43;;;3.67;;
3791;SDS011;1911;53.768;11.474;2023-09-30T03:19:22;11.70;;;4.70;;
3791;SDS011;1911;53.768;11.474;2023-09-30T03:21:48;16.60;;;4.30;;
3791;SDS011;1911;53.768;11.474;2023-09-30T03:24:13;14.47;;;4.40;;
3791;SDS011;1911;53.768;11.474;2023-09-30T03:26:39;14.07;;;3.97;;
3791;SDS011;1911;53.768;11.474;2023-09-30T03:29:06;11.53;;;4.40;;
3791;SDS011;1911;53.768;11.474;2023-09-30T03:31:33;17.37;;;4.00;;
3791;SDS011;1911;53.768;11.474;2023-09-30T03:33:59;8.60;;;3.87;;
3791;SDS011;1911;53.768;11.474;2023-09-30T03:36:25;9.90;;;3.13;;
3791;SDS011;1911;53.768;11.474;2023-09-30T03:38:51;16.13;;;3.60;;
3791;SDS011;1911;53.768;11.474;2023-09-30T03:41:20;18.30;;;4.10;;
3791;SDS011;1911;53.768;11.474;2023-09-30T03:43:46;18.17;;;4.33;;
3791;SDS011;1911;53.768;11.474;2023-09-30T03:46:14;17.30;;;4.27;;
3791;SDS011;1911;53.768;11.474;2023-09-30T03:48:40;11.07;;;3.77;;
3791;SDS011;1911;53.768;11.474;2023-09-30T03:51:12;13.10;;;4.53;;
3791;SDS011;1911;53.768;11.474;2023-09-30T03:53:39;8.90;;;3.63;;
3791;SDS011;1911;53.768;11.474;2023-09-30T03:56:05;12.37;;;3.27;;
3791;SDS011;1911;53.768;11.474;2023-09-30T03:58:31;13.37;;;5.00;;
3791;SDS011;1911;53.768;11.474;2023-09-30T04:00:57;11.83;;;3.90;;
3791;SDS011;1911;53.768;11.474;2023-09-30T04:03:25;8.50;;;3.50;;
3791;SDS011;1911;53.768;11.474;2023-09-30T04:05:52;15.37;;;4.17;;
3791;SDS011;1911;53.768;11.474;2023-09-30T04:08:18;10.77;;;4.07;;
3791;SDS011;1911;53.768;11.474;2023-09-30T04:10:44;12.03;;;3.50;;
3791;SDS011;1911;53.768;11.474;2023-09-30T04:13:09;10.93;;;3.70;;
3791;SDS011;1911;53.768;11.474;2023-09-30T04:15:36;12.50;;;4.00;;
3791;SDS011;1911;53.768;11.474;2023-09-30T04:18:02;11.23;;;3.90;;
3791;SDS011;1911;53.768;11.474;2023-09-30T04:20:30;18.07;;;4.63;;
3791;SDS011;1911;53.768;11.474;2023-09-30T04:22:56;9.40;;;4.07;;
3791;SDS011;1911;53.768;11.474;2023-09-30T04:25:22;17.87;;;6.07;;
3791;SDS011;1911;53.768;11.474;2023-09-30T04:27:52;11.33;;;3.83;;
3791;SDS011;1911;53.768;11.474;2023-09-30T04:30:17;18.20;;;4.27;;
3791;SDS011;1911;53.768;11.474;2023-09-30T04:32:43;15.43;;;4.47;;
3791;SDS011;1911;53.768;11.474;2023-09-30T04:35:09;14.93;;;4.20;;
3791;SDS011;1911;53.768;11.474;2023-09-30T04:37:35;10.00;;;3.20;;
3791;SDS011;1911;53.768;11.474;2023-09-30T04:40:05;9.40;;;3.30;;
3791;SDS011;1911;53.768;11.474;2023-09-30T04:42:40;9.97;;;4.17;;
3791;SDS011;1911;53.768;11.474;2023-09-30T04:45:07;13.27;;;4.03;;
3791;SDS011;1911;53.768;11.474;2023-09-30T04:47:35;15.43;;;4.03;;
3791;SDS011;1911;53.768;11.474;2023-09-30T04:50:01;10.80;;;3.80;;
3791;SDS011;1911;53.768;11.474;2023-09-30T04:52:32;12.23;;;4.17;;
3791;SDS011;1911;53.768;11.474;2023-09-30T04:54:58;12.90;;;4.23;;
3791;SDS011;1911;53.768;11.474;2023-09-30T04:57:25;11.50;;;3.80;;
3791;SDS011;1911;53.768;11.474;2023-09-30T04:59:51;14.53;;;4.60;;
3791;SDS011;1911;53.768;11.474;2023-09-30T05:02:16;21.03;;;4.23;;
3791;SDS011;1911;53.768;11.474;2023-09-30T05:04:42;11.60;;;4.20;;
3791;SDS011;1911;53.768;11.474;2023-09-30T05:07:08;16.27;;;5.43;;
3791;SDS011;1911;53.768;11.474;2023-09-30T05:09:33;10.50;;;3.67;;
3791;SDS011;1911;53.768;11.474;2023-09-30T05:11:59;22.23;;;4.40;;
3791;SDS011;1911;53.768;11.474;2023-09-30T05:14:25;12.70;;;4.63;;
3791;SDS011;1911;53.768;11.474;2023-09-30T05:16:50;21.87;;;5.73;;
3791;SDS011;1911;53.768;11.474;2023-09-30T05:19:16;13.83;;;3.63;;
3791;SDS011;1911;53.768;11.474;2023-09-30T05:21:41;13.93;;;4.70;;
3791;SDS011;1911;53.768;11.474;2023-09-30T05:24:08;13.90;;;4.07;;
3791;SDS011;1911;53.768;11.474;2023-09-30T05:26:34;11.50;;;4.17;;
3791;SDS011;1911;53.768;11.474;2023-09-30T05:28:59;8.57;;;3.47;;
3791;SDS011;1911;53.768;11.474;2023-09-30T05:31:25;13.17;;;4.70;;
3791;SDS011;1911;53.768;11.474;2023-09-30T05:33:50;18.03;;;4.87;;
3791;SDS011;1911;53.768;11.474;2023-09-30T05:36:16;17.63;;;4.67;;
3791;SDS011;1911;53.768;11.474;2023-09-30T05:38:42;14.03;;;4.37;;
3791;SDS011;1911;53.768;11.474;2023-09-30T05:41:07;13.70;;;3.93;;
3791;SDS011;1911;53.768;11.474;2023-09-30T05:43:33;12.43;;;4.97;;
3791;SDS011;1911;53.768;11.474;2023-09-30T05:45:59;16.80;;;4.17;;
3791;SDS011;1911;53.768;11.474;2023-09-30T05:48:24;14.50;;;5.20;;
3791;SDS011;1911;53.768;11.474;2023-09-30T05:50:50;13.23;;;4.20;;
3791;SDS011;1911;53.768;11.474;2023-09-30T05:53:15;16.53;;;4.60;;
3791;SDS011;1911;53.768;11.474;2023-09-30T05:55:41;12.17;;;4.37;;
3791;SDS011;1911;53.768;11.474;2023-09-30T05:58:12;13.70;;;4.47;;
3791;SDS011;1911;53.768;11.474;2023-09-30T06:00:39;18.53;;;5.50;;
3791;SDS011;1911;53.768;11.474;2023-09-30T06:03:07;11.10;;;4.27;;
3791;SDS011;1911;53.768;11.474;2023-09-30T06:05:33;8.40;;;4.20;;
3791;SDS011;1911;53.768;11.474;2023-09-30T06:07:59;21.80;;;5.80;;
3791;SDS011;1911;53.768;11.474;2023-09-30T06:10:27;10.73;;;4.23;;
3791;SDS011;1911;53.768;11.474;2023-09-30T06:12:54;15.03;;;4.90;;
3791;SDS011;1911;53.768;11.474;2023-09-30T06:15:20;9.17;;;4.50;;
3791;SDS011;1911;53.768;11.474;2023-09-30T06:17:49;14.40;;;5.50;;
3791;SDS011;1911;53.768;11.474;2023-09-30T06:20:17;12.40;;;5.10;;
3791;SDS011;1911;53.768;11.474;2023-09-30T06:22:47;9.30;;;4.30;;
3791;SDS011;1911;53.768;11.474;2023-09-30T06:25:16;16.57;;;5.60;;
3791;SDS011;1911;53.768;11.474;2023-09-30T06:27:43;13.93;;;5.17;;
3791;SDS011;1911;53.768;11.474;2023-09-30T06:30:09;16.53;;;6.43;;
3791;SDS011;1911;53.768;11.474;2023-09-30T06:32:36;19.70;;;5.23;;
3791;SDS011;1911;53.768;11.474;2023-09-30T06:35:02;11.63;;;5.83;;
3791;SDS011;1911;53.768;11.474;2023-09-30T06:37:29;13.00;;;5.17;;
3791;SDS011;1911;53.768;11.474;2023-09-30T06:39:54;14.53;;;5.80;;
3791;SDS011;1911;53.768;11.474;2023-09-30T06:42:20;18.00;;;6.30;;
3791;SDS011;1911;53.768;11.474;2023-09-30T06:44:46;21.47;;;5.53;;
3791;SDS011;1911;53.768;11.474;2023-09-30T06:47:12;20.03;;;7.50;;
3791;SDS011;1911;53.768;11.474;2023-09-30T06:49:38;17.20;;;5.90;;
3791;SDS011;1911;53.768;11.474;2023-09-30T06:52:04;19.83;;;6.93;;
3791;SDS011;1911;53.768;11.474;2023-09-30T06:54:33;13.93;;;6.50;;
3791;SDS011;1911;53.768;11.474;2023-09-30T06:56:58;16.23;;;6.07;;
3791;SDS011;1911;53.768;11.474;2023-09-30T06:59:25;15.40;;;5.40;;
3791;SDS011;1911;53.768;11.474;2023-09-30T07:01:51;10.33;;;5.10;;
3791;SDS011;1911;53.768;11.474;2023-09-30T07:04:16;18.23;;;6.17;;
3791;SDS011;1911;53.768;11.474;2023-09-30T07:06:42;14.63;;;5.20;;
3791;SDS011;1911;53.768;11.474;2023-09-30T07:09:08;14.70;;;5.40;;
3791;SDS011;1911;53.768;11.474;2023-09-30T07:11:35;11.33;;;4.60;;
3791;SDS011;1911;53.768;11.474;2023-09-30T07:14:01;12.67;;;5.97;;
3791;SDS011;1911;53.768;11.474;2023-09-30T07:16:27;17.73;;;5.30;;
3791;SDS011;1911;53.768;11.474;2023-09-30T07:18:52;14.70;;;4.67;;
3791;SDS011;1911;53.768;11.474;2023-09-30T07:21:18;10.80;;;5.27;;
3791;SDS011;1911;53.768;11.474;2023-09-30T07:23:44;12.97;;;5.17;;
3791;SDS011;1911;53.768;11.474;2023-09-30T07:26:10;10.80;;;4.83;;
3791;SDS011;1911;53.768;11.474;2023-09-30T07:28:35;14.77;;;5.00;;
3791;SDS011;1911;53.768;11.474;2023-09-30T07:31:01;9.70;;;4.00;;
3791;SDS011;1911;53.768;11.474;2023-09-30T07:33:27;12.43;;;4.70;;
3791;SDS011;1911;53.768;11.474;2023-09-30T07:35:53;8.90;;;4.20;;
3791;SDS011;1911;53.768;11.474;2023-09-30T07:38:20;12.03;;;4.93;;
3791;SDS011;1911;53.768;11.474;2023-09-30T07:40:47;9.50;;;3.97;;
3791;SDS011;1911;53.768;11.474;2023-09-30T07:43:13;11.87;;;4.60;;
3791;SDS011;1911;53.768;11.474;2023-09-30T07:45:39;9.67;;;3.90;;
3791;SDS011;1911;53.768;11.474;2023-09-30T07:48:06;9.10;;;3.50;;
3791;SDS011;1911;53.768;11.474;2023-09-30T07:50:34;11.03;;;4.43;;
3791;SDS011;1911;53.768;11.474;2023-09-30T07:53:00;8.33;;;3.80;;
3791;SDS011;1911;53.768;11.474;2023-09-30T07:55:26;9.47;;;3.43;;
3791;SDS011;1911;53.768;11.474;2023-09-30T07:57:51;10.80;;;3.50;;
3791;SDS011;1911;53.768;11.474;2023-09-30T08:00:17;10.10;;;3.73;;
3791;SDS011;1911;53.768;11.474;2023-09-30T08:02:46;9.97;;;3.93;;
3791;SDS011;1911;53.768;11.474;2023-09-30T08:05:11;11.70;;;3.33;;
3791;SDS011;1911;53.768;11.474;2023-09-30T08:07:37;10.87;;;3.60;;
3791;SDS011;1911;53.768;11.474;2023-09-30T08:10:03;14.53;;;3.67;;
3791;SDS011;1911;53.768;11.474;2023-09-30T08:12:30;8.30;;;3.87;;
3791;SDS011;1911;53.768;11.474;2023-09-30T08:14:55;9.93;;;4.10;;
3791;SDS011;1911;53.768;11.474;2023-09-30T08:17:21;11.13;;;3.93;;
3791;SDS011;1911;53.768;11.474;2023-09-30T08:19:46;9.43;;;2.93;;
3791;SDS011;1911;53.768;11.474;2023-09-30T08:22:13;18.07;;;4.30;;
3791;SDS011;1911;53.768;11.474;2023-09-30T08:24:38;13.60;;;3.80;;
3791;SDS011;1911;53.768;11.474;2023-09-30T08:27:04;12.33;;;3.67;;
3791;SDS011;1911;53.768;11.474;2023-09-30T08:29:33;5.57;;;2.50;;
3791;SDS011;1911;53.768;11.474;2023-09-30T08:32:01;8.00;;;3.30;;
3791;SDS011;1911;53.768;11.474;2023-09-30T08:34:28;8.20;;;2.67;;
3791;SDS011;1911;53.768;11.474;2023-09-30T08:36:54;6.60;;;2.10;;
3791;SDS011;1911;53.768;11.474;2023-09-30T08:39:19;14.07;;;2.70;;
3791;SDS011;1911;53.768;11.474;2023-09-30T08:41:45;10.73;;;3.37;;
3791;SDS011;1911;53.768;11.474;2023-09-30T08:44:11;10.77;;;3.33;;
3791;SDS011;1911;53.768;11.474;2023-09-30T08:46:37;9.67;;;3.57;;
3791;SDS011;1911;53.768;11.474;2023-09-30T08:49:05;10.03;;;2.97;;
3791;SDS011;1911;53.768;11.474;2023-09-30T08:51:31;8.57;;;3.30;;
3791;SDS011;1911;53.768;11.474;2023-09-30T08:53:57;9.70;;;3.20;;
3791;SDS011;1911;53.768;11.474;2023-09-30T08:56:29;10.70;;;3.17;;
3791;SDS011;1911;53.768;11.474;2023-09-30T08:58:58;6.40;;;2.27;;
3791;SDS011;1911;53.768;11.474;2023-09-30T09:01:25;10.20;;;3.80;;
3791;SDS011;1911;53.768;11.474;2023-09-30T09:03:52;8.57;;;3.03;;
3791;SDS011;1911;53.768;11.474;2023-09-30T09:06:19;13.00;;;3.50;;
3791;SDS011;1911;53.768;11.474;2023-09-30T09:08:46;17.33;;;5.73;;
3791;SDS011;1911;53.768;11.474;2023-09-30T09:11:12;12.33;;;3.43;;
3791;SDS011;1911;53.768;11.474;2023-09-30T09:13:49;10.00;;;3.00;;
3791;SDS011;1911;53.768;11.474;2023-09-30T09:16:18;10.63;;;2.30;;
3791;SDS011;1911;53.768;11.474;2023-09-30T09:18:44;11.23;;;3.17;;
3791;SDS011;1911;53.768;11.474;2023-09-30T09:21:15;7.50;;;2.50;;
3791;SDS011;1911;53.768;11.474;2023-09-30T09:23:47;13.00;;;3.30;;
3791;SDS011;1911;53.768;11.474;2023-09-30T09:26:24;11.40;;;3.60;;
3791;SDS011;1911;53.768;11.474;2023-09-30T09:29:01;9.47;;;3.00;;
3791;SDS011;1911;53.768;11.474;2023-09-30T09:33:59;11.47;;;3.07;;
3791;SDS011;1911;53.768;11.474;2023-09-30T09:36:39;9.97;;;3.77;;
3791;SDS011;1911;53.768;11.474;2023-09-30T09:39:09;9.50;;;2.57;;
3791;SDS011;1911;53.768;11.474;2023-09-30T09:41:51;6.87;;;2.43;;
3791;SDS011;1911;53.768;11.474;2023-09-30T09:44:21;10.47;;;2.80;;
3791;SDS011;1911;53.768;11.474;2023-09-30T09:46:48;7.07;;;2.50;;
3791;SDS011;1911;53.768;11.474;2023-09-30T09:49:17;12.57;;;2.20;;
3791;SDS011;1911;53.768;11.474;2023-09-30T09:51:44;11.90;;;3.00;;
3791;SDS011;1911;53.768;11.474;2023-09-30T09:54:14;9.33;;;2.50;;
3791;SDS011;1911;53.768;11.474;2023-09-30T09:56:41;7.83;;;2.33;;
3791;SDS011;1911;53.768;11.474;2023-09-30T09:59:08;4.23;;;2.00;;
3791;SDS011;1911;53.768;11.474;2023-09-30T10:01:36;7.70;;;2.03;;
3791;SDS011;1911;53.768;11.474;2023-09-30T10:04:04;7.03;;;2.30;;
3791;SDS011;1911;53.768;11.474;2023-09-30T10:06:30;8.00;;;2.57;;
3791;SDS011;1911;53.768;11.474;2023-09-30T10:09:03;8.87;;;2.10;;
3791;SDS011;1911;53.768;11.474;2023-09-30T10:11:34;16.43;;;7.10;;
3791;SDS011;1911;53.768;11.474;2023-09-30T10:14:00;12.60;;;3.90;;
3791;SDS011;1911;53.768;11.474;2023-09-30T10:19:13;7.93;;;2.53;;
3791;SDS011;1911;53.768;11.474;2023-09-30T10:21:39;7.93;;;2.20;;
3791;SDS011;1911;53.768;11.474;2023-09-30T10:35:16;13.40;;;3.50;;
3791;SDS011;1911;53.768;11.474;2023-09-30T10:37:46;6.03;;;1.63;;
3791;SDS011;1911;53.768;11.474;2023-09-30T10:40:29;6.47;;;2.00;;
3791;SDS011;1911;53.768;11.474;2023-09-30T10:42:56;5.60;;;2.00;;
3791;SDS011;1911;53.768;11.474;2023-09-30T10:45:42;7.80;;;2.30;;
3791;SDS011;1911;53.768;11.474;2023-09-30T10:50:50;11.03;;;3.03;;
3791;SDS011;1911;53.768;11.474;2023-09-30T10:53:20;6.90;;;1.93;;
3791;SDS011;1911;53.768;11.474;2023-09-30T10:55:45;10.70;;;3.13;;
3791;SDS011;1911;53.768;11.474;2023-09-30T10:58:12;10.10;;;2.67;;
3791;SDS011;1911;53.768;11.474;2023-09-30T11:00:38;7.30;;;2.03;;
3791;SDS011;1911;53.768;11.474;2023-09-30T11:03:04;7.57;;;1.70;;
3791;SDS011;1911;53.768;11.474;2023-09-30T11:05:30;10.63;;;2.20;;
3791;SDS011;1911;53.768;11.474;2023-09-30T11:07:59;3.33;;;1.70;;
3791;SDS011;1911;53.768;11.474;2023-09-30T11:10:28;6.70;;;1.97;;
3791;SDS011;1911;53.768;11.474;2023-09-30T11:12:57;19.57;;;3.07;;
3791;SDS011;1911;53.768;11.474;2023-09-30T11:15:23;10.73;;;4.20;;
3791;SDS011;1911;53.768;11.474;2023-09-30T11:17:49;10.03;;;2.33;;
3791;SDS011;1911;53.768;11.474;2023-09-30T11:20:18;8.37;;;1.70;;
3791;SDS011;1911;53.768;11.474;2023-09-30T11:22:44;6.90;;;1.97;;
3791;SDS011;1911;53.768;11.474;2023-09-30T11:25:20;6.07;;;2.30;;
3791;SDS011;1911;53.768;11.474;2023-09-30T11:27:46;7.47;;;2.53;;
3791;SDS011;1911;53.768;11.474;2023-09-30T11:30:12;8.23;;;2.33;;
3791;SDS011;1911;53.768;11.474;2023-09-30T11:32:38;4.93;;;1.67;;
3791;SDS011;1911;53.768;11.474;2023-09-30T11:35:25;7.13;;;1.70;;
3791;SDS011;1911;53.768;11.474;2023-09-30T11:37:50;10.23;;;1.90;;
3791;SDS011;1911;53.768;11.474;2023-09-30T11:40:17;9.50;;;2.63;;
3791;SDS011;1911;53.768;11.474;2023-09-30T11:45:48;3.90;;;1.77;;
3791;SDS011;1911;53.768;11.474;2023-09-30T11:48:17;5.47;;;2.47;;
3791;SDS011;1911;53.768;11.474;2023-09-30T11:50:48;7.10;;;1.80;;
3791;SDS011;1911;53.768;11.474;2023-09-30T11:53:15;3.70;;;1.50;;
3791;SDS011;1911;53.768;11.474;2023-09-30T11:55:41;10.53;;;2.20;;
3791;SDS011;1911;53.768;11.474;2023-09-30T11:58:07;8.10;;;2.43;;
3791;SDS011;1911;53.768;11.474;2023-09-30T12:00:34;11.37;;;2.03;;
3791;SDS011;1911;53.768;11.474;2023-09-30T12:03:00;7.33;;;1.90;;
3791;SDS011;1911;53.768;11.474;2023-09-30T12:05:25;11.07;;;2.17;;
3791;SDS011;1911;53.768;11.474;2023-09-30T12:07:51;4.00;;;1.47;;
3791;SDS011;1911;53.768;11.474;2023-09-30T12:10:17;6.60;;;2.17;;
3791;SDS011;1911;53.768;11.474;2023-09-30T12:12:42;6.23;;;2.03;;
3791;SDS011;1911;53.768;11.474;2023-09-30T12:15:09;5.40;;;1.67;;
3791;SDS011;1911;53.768;11.474;2023-09-30T12:17:35;8.17;;;2.20;;
3791;SDS011;1911;53.768;11.474;2023-09-30T12:20:02;8.03;;;2.00;;
3791;SDS011;1911;53.768;11.474;2023-09-30T12:22:28;6.43;;;1.70;;
3791;SDS011;1911;53.768;11.474;2023-09-30T12:24:54;7.10;;;2.87;;
3791;SDS011;1911;53.768;11.474;2023-09-30T12:27:19;11.47;;;4.07;;
3791;SDS011;1911;53.768;11.474;2023-09-30T12:29:45;9.50;;;1.73;;
3791;SDS011;1911;53.768;11.474;2023-09-30T12:32:13;6.80;;;2.00;;
3791;SDS011;1911;53.768;11.474;2023-09-30T12:34:39;3.80;;;1.93;;
3791;SDS011;1911;53.768;11.474;2023-09-30T12:37:05;11.40;;;1.93;;
3791;SDS011;1911;53.768;11.474;2023-09-30T12:39:31;4.00;;;1.90;;
3791;SDS011;1911;53.768;11.474;2023-09-30T12:41:58;7.43;;;1.73;;
3791;SDS011;1911;53.768;11.474;2023-09-30T12:44:23;7.27;;;1.53;;
3791;SDS011;1911;53.768;11.474;2023-09-30T12:46:49;7.37;;;2.30;;
3791;SDS011;1911;53.768;11.474;2023-09-30T12:49:15;4.87;;;2.30;;
3791;SDS011;1911;53.768;11.474;2023-09-30T12:51:40;12.50;;;2.00;;
3791;SDS011;1911;53.768;11.474;2023-09-30T12:54:06;7.00;;;2.70;;
3791;SDS011;1911;53.768;11.474;2023-09-30T12:56:32;6.43;;;2.00;;
3791;SDS011;1911;53.768;11.474;2023-09-30T12:58:58;5.30;;;1.93;;
3791;SDS011;1911;53.768;11.474;2023-09-30T13:01:24;5.83;;;2.47;;
3791;SDS011;1911;53.768;11.474;2023-09-30T13:03:50;7.27;;;2.40;;
3791;SDS011;1911;53.768;11.474;2023-09-30T13:06:16;5.37;;;1.90;;
3791;SDS011;1911;53.768;11.474;2023-09-30T13:08:42;4.60;;;1.70;;
3791;SDS011;1911;53.768;11.474;2023-09-30T13:11:08;9.40;;;1.80;;
3791;SDS011;1911;53.768;11.474;2023-09-30T13:13:34;10.37;;;2.33;;
3791;SDS011;1911;53.768;11.474;2023-09-30T13:16:00;9.23;;;2.20;;
3791;SDS011;1911;53.768;11.474;2023-09-30T13:18:26;5.70;;;1.50;;
3791;SDS011;1911;53.768;11.474;2023-09-30T13:20:52;10.13;;;3.07;;
3791;SDS011;1911;53.768;11.474;2023-09-30T13:23:18;8.70;;;2.10;;
3791;SDS011;1911;53.768;11.474;2023-09-30T13:25:44;5.10;;;2.00;;
3791;SDS011;1911;53.768;11.474;2023-09-30T13:28:10;9.77;;;2.07;;
3791;SDS011;1911;53.768;11.474;2023-09-30T13:30:35;6.77;;;2.90;;
3791;SDS011;1911;53.768;11.474;2023-09-30T13:33:01;10.80;;;1.83;;
3791;SDS011;1911;53.768;11.474;2023-09-30T13:35:27;6.63;;;1.67;;
3791;SDS011;1911;53.768;11.474;2023-09-30T13:37:53;7.13;;;1.80;;
3791;SDS011;1911;53.768;11.474;2023-09-30T13:40:18;5.07;;;2.30;;
3791;SDS011;1911;53.768;11.474;2023-09-30T13:42:44;7.57;;;2.40;;
3791;SDS011;1911;53.768;11.474;2023-09-30T13:45:10;6.43;;;1.60;;
3791;SDS011;1911;53.768;11.474;2023-09-30T13:47:36;8.60;;;2.20;;
3791;SDS011;1911;53.768;11.474;2023-09-30T13:50:02;5.30;;;1.50;;
3791;SDS011;1911;53.768;11.474;2023-09-30T13:52:29;6.80;;;2.20;;
3791;SDS011;1911;53.768;11.474;2023-09-30T13:54:54;8.07;;;3.47;;
3791;SDS011;1911;53.768;11.474;2023-09-30T13:57:20;6.20;;;2.30;;
3791;SDS011;1911;53.768;11.474;2023-09-30T13:59:46;6.57;;;1.80;;
3791;SDS011;1911;53.768;11.474;2023-09-30T14:02:12;6.10;;;1.70;;
3791;SDS011;1911;53.768;11.474;2023-09-30T14:04:37;7.03;;;1.80;;
3791;SDS011;1911;53.768;11.474;2023-09-30T14:07:03;9.20;;;3.13;;
3791;SDS011;1911;53.768;11.474;2023-09-30T14:09:30;4.63;;;1.33;;
3791;SDS011;1911;53.768;11.474;2023-09-30T14:11:56;2.77;;;1.70;;
3791;SDS011;1911;53.768;11.474;2023-09-30T14:14:23;4.97;;;1.87;;
3791;SDS011;1911;53.768;11.474;2023-09-30T14:16:49;2.90;;;1.17;;
3791;SDS011;1911;53.768;11.474;2023-09-30T14:19:15;4.93;;;2.57;;
3791;SDS011;1911;53.768;11.474;2023-09-30T14:21:40;6.50;;;2.60;;
3791;SDS011;1911;53.768;11.474;2023-09-30T14:24:06;6.13;;;1.60;;
3791;SDS011;1911;53.768;11.474;2023-09-30T14:26:32;2.43;;;1.30;;
3791;SDS011;1911;53.768;11.474;2023-09-30T14:28:58;5.10;;;1.30;;
3791;SDS011;1911;53.768;11.474;2023-09-30T14:31:24;7.43;;;2.57;;
3791;SDS011;1911;53.768;11.474;2023-09-30T14:33:49;6.03;;;1.60;;
3791;SDS011;1911;53.768;11.474;2023-09-30T14:36:16;3.60;;;1.67;;
3791;SDS011;1911;53.768;11.474;2023-09-30T14:38:45;4.53;;;1.40;;
3791;SDS011;1911;53.768;11.474;2023-09-30T14:41:11;4.13;;;2.17;;
3791;SDS011;1911;53.768;11.474;2023-09-30T14:43:37;6.60;;;1.87;;
3791;SDS011;1911;53.768;11.474;2023-09-30T14:46:04;7.77;;;2.23;;
3791;SDS011;1911;53.768;11.474;2023-09-30T14:48:30;5.13;;;1.23;;
3791;SDS011;1911;53.768;11.474;2023-09-30T14:50:55;6.33;;;1.37;;
3791;SDS011;1911;53.768;11.474;2023-09-30T14:53:21;5.60;;;2.20;;
3791;SDS011;1911;53.768;11.474;2023-09-30T14:55:47;8.07;;;1.60;;
3791;SDS011;1911;53.768;11.474;2023-09-30T14:58:13;3.77;;;1.63;;
3791;SDS011;1911;53.768;11.474;2023-09-30T15:00:39;9.20;;;2.00;;
3791;SDS011;1911;53.768;11.474;2023-09-30T15:03:04;5.23;;;1.60;;
3791;SDS011;1911;53.768;11.474;2023-09-30T15:05:30;7.17;;;1.97;;
3791;SDS011;1911;53.768;11.474;2023-09-30T15:07:57;6.00;;;2.00;;
3791;SDS011;1911;53.768;11.474;2023-09-30T15:10:24;6.03;;;1.60;;
3791;SDS011;1911;53.768;11.474;2023-09-30T15:12:50;4.20;;;1.90;;